Home > Products > Valid Products > TAF

000
FTUS45 KBYZ 281122
TAFBIL
TAF
KBIL 281122Z 2812/0112 VRB05KT P6SM VCSH FEW020 BKN035 OVC060
     FM281700 VRB05KT P6SM SCT030 BKN150
     FM010200 23010KT P6SM FEW050 SCT250=



000
FTUS45 KBYZ 281122
TAFLVM
TAF
KLVM 281122Z 2812/0112 VRB05KT P6SM -SHSN SCT020 OVC050
      TEMPO 2812/2816 5SM -SHSN BKN022
     FM281700 VRB05KT P6SM VCSH SCT025 BKN120
     FM010400 24010KT P6SM FEW020 SCT200=



000
FTUS45 KBYZ 281122
TAFSHR
TAF
KSHR 281122Z 2812/0112 VRB05KT P6SM SCT020 BKN035
     FM010200 VRB05KT P6SM SCT030 SCT200=



000
FTUS45 KBYZ 281122
TAFSHR
TAF
KSHR 281122Z 2812/0112 VRB05KT P6SM SCT020 BKN035
     FM010200 VRB05KT P6SM SCT030 SCT200=



000
FTUS45 KBYZ 281122
TAFMLS
TAF
KMLS 281122Z 2812/0112 31009KT P6SM SCT025 BKN050
     FM010200 26008KT P6SM SCT030 SCT120
     FM011000 27010KT P6SM VCSH SCT020 BKN040=



000
FTUS45 KBYZ 281122
TAFMLS
TAF
KMLS 281122Z 2812/0112 31009KT P6SM SCT025 BKN050
     FM010200 26008KT P6SM SCT030 SCT120
     FM011000 27010KT P6SM VCSH SCT020 BKN040=



000
FTUS45 KBYZ 281122
TAFBIL
TAF
KBIL 281122Z 2812/0112 VRB05KT P6SM VCSH FEW020 BKN035 OVC060
     FM281700 VRB05KT P6SM SCT030 BKN150
     FM010200 23010KT P6SM FEW050 SCT250=



000
FTUS45 KBYZ 281122
TAFLVM
TAF
KLVM 281122Z 2812/0112 VRB05KT P6SM -SHSN SCT020 OVC050
      TEMPO 2812/2816 5SM -SHSN BKN022
     FM281700 VRB05KT P6SM VCSH SCT025 BKN120
     FM010400 24010KT P6SM FEW020 SCT200=



000
FTUS45 KBYZ 280520
TAFLVM
TAF
KLVM 280520Z 2806/0106 07008KT P6SM VCSH BKN025 OVC040
     FM281700 07008KT P6SM SCT040 BKN080
     FM282100 07006KT P6SM SCT080=



000
FTUS45 KBYZ 280520
TAFSHR
TAF
KSHR 280520Z 2806/0106 32006KT P6SM SCT040 BKN080
     FM281000 32006KT P6SM VCSH SCT020 OVC040
     FM282100 32006KT P6SM SCT040 BKN060
     FM010100 31004KT P6SM SCT080=



000
FTUS45 KBYZ 280520
TAFMLS
TAF
KMLS 280520Z 2806/0106 32008KT P6SM SCT200
     FM280700 32008KT P6SM SCT060 BKN100
     FM281100 31008KT P6SM BKN050
     FM281900 30008KT P6SM SCT050=



000
FTUS45 KBYZ 280520
TAFMLS
TAF
KMLS 280520Z 2806/0106 32008KT P6SM SCT200
     FM280700 32008KT P6SM SCT060 BKN100
     FM281100 31008KT P6SM BKN050
     FM281900 30008KT P6SM SCT050=



000
FTUS45 KBYZ 280520
TAFBIL
TAF
KBIL 280520Z 2806/0106 04008KT P6SM VCSH SCT025 BKN040 OVC060
     FM281500 35008KT P6SM BKN060 OVC080
     FM281900 35006KT P6SM SCT080
     FM010100 24008KT P6SM SCT100=



000
FTUS45 KBYZ 280520
TAFSHR
TAF
KSHR 280520Z 2806/0106 32006KT P6SM SCT040 BKN080
     FM281000 32006KT P6SM VCSH SCT020 OVC040
     FM282100 32006KT P6SM SCT040 BKN060
     FM010100 31004KT P6SM SCT080=



000
FTUS45 KBYZ 280520
TAFLVM
TAF
KLVM 280520Z 2806/0106 07008KT P6SM VCSH BKN025 OVC040
     FM281700 07008KT P6SM SCT040 BKN080
     FM282100 07006KT P6SM SCT080=



000
FTUS45 KBYZ 280520
TAFBIL
TAF
KBIL 280520Z 2806/0106 04008KT P6SM VCSH SCT025 BKN040 OVC060
     FM281500 35008KT P6SM BKN060 OVC080
     FM281900 35006KT P6SM SCT080
     FM010100 24008KT P6SM SCT100=



000
FTUS45 KBYZ 280520
TAFLVM
TAF
KLVM 280520Z 2806/0106 07008KT P6SM VCSH BKN025 OVC040
     FM281700 07008KT P6SM SCT040 BKN080
     FM282100 07006KT P6SM SCT080=



000
FTUS45 KBYZ 280520
TAFBIL
TAF
KBIL 280520Z 2806/0106 04008KT P6SM VCSH SCT025 BKN040 OVC060
     FM281500 35008KT P6SM BKN060 OVC080
     FM281900 35006KT P6SM SCT080
     FM010100 24008KT P6SM SCT100=



000
FTUS45 KBYZ 280520
TAFMLS
TAF
KMLS 280520Z 2806/0106 32008KT P6SM SCT200
     FM280700 32008KT P6SM SCT060 BKN100
     FM281100 31008KT P6SM BKN050
     FM281900 30008KT P6SM SCT050=



000
FTUS45 KBYZ 280520
TAFMLS
TAF
KMLS 280520Z 2806/0106 32008KT P6SM SCT200
     FM280700 32008KT P6SM SCT060 BKN100
     FM281100 31008KT P6SM BKN050
     FM281900 30008KT P6SM SCT050=



000
FTUS45 KBYZ 280520
TAFSHR
TAF
KSHR 280520Z 2806/0106 32006KT P6SM SCT040 BKN080
     FM281000 32006KT P6SM VCSH SCT020 OVC040
     FM282100 32006KT P6SM SCT040 BKN060
     FM010100 31004KT P6SM SCT080=



000
FTUS45 KBYZ 280520
TAFLVM
TAF
KLVM 280520Z 2806/0106 07008KT P6SM VCSH BKN025 OVC040
     FM281700 07008KT P6SM SCT040 BKN080
     FM282100 07006KT P6SM SCT080=



000
FTUS45 KBYZ 280520
TAFSHR
TAF
KSHR 280520Z 2806/0106 32006KT P6SM SCT040 BKN080
     FM281000 32006KT P6SM VCSH SCT020 OVC040
     FM282100 32006KT P6SM SCT040 BKN060
     FM010100 31004KT P6SM SCT080=



000
FTUS45 KBYZ 280520
TAFBIL
TAF
KBIL 280520Z 2806/0106 04008KT P6SM VCSH SCT025 BKN040 OVC060
     FM281500 35008KT P6SM BKN060 OVC080
     FM281900 35006KT P6SM SCT080
     FM010100 24008KT P6SM SCT100=



000
FTUS45 KBYZ 280434 AAA
TAFLVM
TAF AMD
KLVM 280434Z 2805/2824 08008KT P6SM VCSH OVC040
     FM281700 08008KT P6SM SCT040 BKN080=



000
FTUS45 KBYZ 280434 AAA
TAFLVM
TAF AMD
KLVM 280434Z 2805/2824 08008KT P6SM VCSH OVC040
     FM281700 08008KT P6SM SCT040 BKN080=



000
FTUS45 KBYZ 280434 AAA
TAFLVM
TAF AMD
KLVM 280434Z 2805/2824 08008KT P6SM VCSH OVC040
     FM281700 08008KT P6SM SCT040 BKN080=



000
FTUS45 KBYZ 280434 AAA
TAFLVM
TAF AMD
KLVM 280434Z 2805/2824 08008KT P6SM VCSH OVC040
     FM281700 08008KT P6SM SCT040 BKN080=



000
FTUS45 KBYZ 272330
TAFLVM
TAF
KLVM 272330Z 2800/2824 08008KT P6SM VCSH OVC060
     FM280300 08010KT 5SM -SHSN BR OVC020
     FM280900 08010KT P6SM VCSH BKN030 OVC060
     FM281700 08008KT P6SM SCT040 BKN080=



000
FTUS45 KBYZ 272330
TAFBIL
TAF
KBIL 272330Z 2800/2824 VRB04KT P6SM SCT080 BKN200
     FM280300 30008KT P6SM VCSH BKN060 OVC080
     FM280700 02008KT P6SM VCSH BKN040 OVC060
     FM281700 31008KT P6SM BKN060 OVC080=



000
FTUS45 KBYZ 272330
TAFSHR
TAF
KSHR 272330Z 2800/2824 VRB04KT P6SM SCT200
     FM280300 32008KT P6SM SCT100 BKN200
     FM280900 32006KT P6SM SCT040 BKN080
     FM281300 33006KT P6SM VCSH SCT020 OVC040
     FM282100 33006KT P6SM SCT040 BKN060=



000
FTUS45 KBYZ 272330
TAFMLS
TAF
KMLS 272330Z 2800/2824 15008KT P6SM SCT200
     FM280300 31008KT P6SM SCT200
     FM280700 31008KT P6SM SCT060 BKN100
     FM281100 30008KT P6SM BKN040
     FM281700 30008KT P6SM SCT050=



000
FTUS45 KBYZ 272330
TAFMLS
TAF
KMLS 272330Z 2800/2824 15008KT P6SM SCT200
     FM280300 31008KT P6SM SCT200
     FM280700 31008KT P6SM SCT060 BKN100
     FM281100 30008KT P6SM BKN040
     FM281700 30008KT P6SM SCT050=



000
FTUS45 KBYZ 272330
TAFBIL
TAF
KBIL 272330Z 2800/2824 VRB04KT P6SM SCT080 BKN200
     FM280300 30008KT P6SM VCSH BKN060 OVC080
     FM280700 02008KT P6SM VCSH BKN040 OVC060
     FM281700 31008KT P6SM BKN060 OVC080=



000
FTUS45 KBYZ 272330
TAFSHR
TAF
KSHR 272330Z 2800/2824 VRB04KT P6SM SCT200
     FM280300 32008KT P6SM SCT100 BKN200
     FM280900 32006KT P6SM SCT040 BKN080
     FM281300 33006KT P6SM VCSH SCT020 OVC040
     FM282100 33006KT P6SM SCT040 BKN060=



000
FTUS45 KBYZ 272330
TAFLVM
TAF
KLVM 272330Z 2800/2824 08008KT P6SM VCSH OVC060
     FM280300 08010KT 5SM -SHSN BR OVC020
     FM280900 08010KT P6SM VCSH BKN030 OVC060
     FM281700 08008KT P6SM SCT040 BKN080=



000
FTUS45 KBYZ 271726
TAFSHR
TAF
KSHR 271726Z 2718/2818 VRB05KT P6SM FEW020
     FM280300 32008KT P6SM SCT020 BKN080
     FM280800 34008KT P6SM VCSH SCT020 OVC040=



000
FTUS45 KBYZ 271726
TAFLVM
TAF
KLVM 271726Z 2718/2818 VRB06KT P6SM SCT015 SCT200
     FM272200 08008KT P6SM VCSH SCT015 BKN060
     FM280200 08012KT 3SM -SHSN BR OVC012
     FM281000 08010KT P6SM VCSH BKN008 OVC020=



000
FTUS45 KBYZ 271726
TAFBIL
TAF
KBIL 271726Z 2718/2818 VRB06KT P6SM FEW020 SCT200
     FM280200 03010KT P6SM VCSH BKN020 OVC080
     FM280700 03010KT 5SM -SHSN BR BKN012 OVC060=



000
FTUS45 KBYZ 271726
TAFMLS
TAF
KMLS 271726Z 2718/2818 15011KT P6SM SKC
     FM272300 VRB06KT P6SM FEW015 SCT200
     FM280400 33010KT P6SM FEW040 BKN120=



000
FTUS45 KBYZ 271726
TAFBIL
TAF
KBIL 271726Z 2718/2818 VRB06KT P6SM FEW020 SCT200
     FM280200 03010KT P6SM VCSH BKN020 OVC080
     FM280700 03010KT 5SM -SHSN BR BKN012 OVC060=



000
FTUS45 KBYZ 271726
TAFMLS
TAF
KMLS 271726Z 2718/2818 15011KT P6SM SKC
     FM272300 VRB06KT P6SM FEW015 SCT200
     FM280400 33010KT P6SM FEW040 BKN120=



000
FTUS45 KBYZ 271726
TAFSHR
TAF
KSHR 271726Z 2718/2818 VRB05KT P6SM FEW020
     FM280300 32008KT P6SM SCT020 BKN080
     FM280800 34008KT P6SM VCSH SCT020 OVC040=



000
FTUS45 KBYZ 271726
TAFLVM
TAF
KLVM 271726Z 2718/2818 VRB06KT P6SM SCT015 SCT200
     FM272200 08008KT P6SM VCSH SCT015 BKN060
     FM280200 08012KT 3SM -SHSN BR OVC012
     FM281000 08010KT P6SM VCSH BKN008 OVC020=



000
FTUS45 KBYZ 271200 CCA
TAFLVM
TAF COR
KLVM 271200Z 2712/2812 25008KT P6SM SCT015 SCT200
     FM272300 08008KT P6SM VCSH SCT015 BKN060
     FM280200 08012KT 3SM -SHSN BR OVC012
     FM281000 08010KT P6SM VCSH BKN008 OVC020=



000
FTUS45 KBYZ 271200 CCA
TAFLVM
TAF COR
KLVM 271200Z 2712/2812 25008KT P6SM SCT015 SCT200
     FM272300 08008KT P6SM VCSH SCT015 BKN060
     FM280200 08012KT 3SM -SHSN BR OVC012
     FM281000 08010KT P6SM VCSH BKN008 OVC020=



000
FTUS45 KBYZ 271124
TAFSHR
TAF
KSHR 271124Z 2712/2812 VRB05KT P6SM FEW020
     FM280100 32008KT P6SM SCT020 BKN080
     FM280500 32008KT P6SM VCSH SCT020 OVC040=



000
FTUS45 KBYZ 271124
TAFMLS
TAF
KMLS 271124Z 2712/2812 14008KT P6SM SKC
     FM280000 34010KT P6SM FEW040 BKN120=



000
FTUS45 KBYZ 271124
TAFSHR
TAF
KSHR 271124Z 2712/2812 VRB05KT P6SM FEW020
     FM280100 32008KT P6SM SCT020 BKN080
     FM280500 32008KT P6SM VCSH SCT020 OVC040=



000
FTUS45 KBYZ 271124
TAFBIL
TAF
KBIL 271124Z 2712/2812 VRB05KT P6SM VCFG FEW002 SCT020
      TEMPO 2712/2714 1/2SM FZFG BKN002
     FM271600 20007KT P6SM FEW020 SCT250
     FM280200 03010KT P6SM VCSH BKN020 OVC080
     FM280700 03010KT 5SM -SHSN BR BKN012 OVC060=



000
FTUS45 KBYZ 271124
TAFLVM
TAF
KLVM 271124Z 2712/2812 VRB05KT P6SM OVC015
      TEMPO 2714/2716 SCT015
     FM271600 25008KT P6SM SCT015 SCT200
     FM272300 08008KT P6SM VCSH SCT015 BKN060
     FM280200 08012KT 3SM -SHSN BR OVC012
     FM281000 08010KT P6SM VCSH BKN008 OVC020=



000
FTUS45 KBYZ 271124
TAFLVM
TAF
KLVM 271124Z 2712/2812 VRB05KT P6SM OVC015
      TEMPO 2714/2716 SCT015
     FM271600 25008KT P6SM SCT015 SCT200
     FM272300 08008KT P6SM VCSH SCT015 BKN060
     FM280200 08012KT 3SM -SHSN BR OVC012
     FM281000 08010KT P6SM VCSH BKN008 OVC020=



000
FTUS45 KBYZ 271124
TAFMLS
TAF
KMLS 271124Z 2712/2812 14008KT P6SM SKC
     FM280000 34010KT P6SM FEW040 BKN120=



000
FTUS45 KBYZ 270520
TAFSHR
TAF
KSHR 270520Z 2706/2806 20004KT P6SM SKC
     FM272100 VRB04KT P6SM SCT100
     FM280100 32007KT P6SM BKN040 OVC060=



000
FTUS45 KBYZ 270520
TAFBIL
TAF
KBIL 270520Z 2706/2806 10004KT P6SM SKC
     FM270900 07005KT P6SM SCT200
     FM271200 22009KT P6SM SKC
     FM271800 21008KT P6SM SCT080
     FM280100 06006KT P6SM BKN040 OVC060=



000
FTUS45 KBYZ 270520
TAFLVM
TAF
KLVM 270520Z 2706/2806 07009KT P6SM OVC018
     FM271200 30008KT P6SM SCT015 SCT100
     FM271800 36007KT P6SM BKN100
     FM272100 05007KT P6SM VCSH BKN060
     FM280100 08007KT P6SM -SHSN BKN020 OVC040=



000
FTUS45 KBYZ 270520
TAFMLS
TAF
KMLS 270520Z 2706/2806 15006KT P6SM SKC
     FM271800 18007KT P6SM SCT100
     FM280100 32007KT P6SM BKN080=



000
FTUS45 KBYZ 270520
TAFBIL
TAF
KBIL 270520Z 2706/2806 10004KT P6SM SKC
     FM270900 07005KT P6SM SCT200
     FM271200 22009KT P6SM SKC
     FM271800 21008KT P6SM SCT080
     FM280100 06006KT P6SM BKN040 OVC060=



000
FTUS45 KBYZ 270520
TAFMLS
TAF
KMLS 270520Z 2706/2806 15006KT P6SM SKC
     FM271800 18007KT P6SM SCT100
     FM280100 32007KT P6SM BKN080=



000
FTUS45 KBYZ 270520
TAFLVM
TAF
KLVM 270520Z 2706/2806 07009KT P6SM OVC018
     FM271200 30008KT P6SM SCT015 SCT100
     FM271800 36007KT P6SM BKN100
     FM272100 05007KT P6SM VCSH BKN060
     FM280100 08007KT P6SM -SHSN BKN020 OVC040=



000
FTUS45 KBYZ 270520
TAFBIL
TAF
KBIL 270520Z 2706/2806 10004KT P6SM SKC
     FM270900 07005KT P6SM SCT200
     FM271200 22009KT P6SM SKC
     FM271800 21008KT P6SM SCT080
     FM280100 06006KT P6SM BKN040 OVC060=



000
FTUS45 KBYZ 270520
TAFSHR
TAF
KSHR 270520Z 2706/2806 20004KT P6SM SKC
     FM272100 VRB04KT P6SM SCT100
     FM280100 32007KT P6SM BKN040 OVC060=



000
FTUS45 KBYZ 270520
TAFLVM
TAF
KLVM 270520Z 2706/2806 07009KT P6SM OVC018
     FM271200 30008KT P6SM SCT015 SCT100
     FM271800 36007KT P6SM BKN100
     FM272100 05007KT P6SM VCSH BKN060
     FM280100 08007KT P6SM -SHSN BKN020 OVC040=



000
FTUS45 KBYZ 270520
TAFSHR
TAF
KSHR 270520Z 2706/2806 20004KT P6SM SKC
     FM272100 VRB04KT P6SM SCT100
     FM280100 32007KT P6SM BKN040 OVC060=



000
FTUS45 KBYZ 270520
TAFMLS
TAF
KMLS 270520Z 2706/2806 15006KT P6SM SKC
     FM271800 18007KT P6SM SCT100
     FM280100 32007KT P6SM BKN080=



000
FTUS45 KBYZ 270520
TAFSHR
TAF
KSHR 270520Z 2706/2806 20004KT P6SM SKC
     FM272100 VRB04KT P6SM SCT100
     FM280100 32007KT P6SM BKN040 OVC060=



000
FTUS45 KBYZ 270520
TAFMLS
TAF
KMLS 270520Z 2706/2806 15006KT P6SM SKC
     FM271800 18007KT P6SM SCT100
     FM280100 32007KT P6SM BKN080=



000
FTUS45 KBYZ 270520
TAFBIL
TAF
KBIL 270520Z 2706/2806 10004KT P6SM SKC
     FM270900 07005KT P6SM SCT200
     FM271200 22009KT P6SM SKC
     FM271800 21008KT P6SM SCT080
     FM280100 06006KT P6SM BKN040 OVC060=



000
FTUS45 KBYZ 270520
TAFLVM
TAF
KLVM 270520Z 2706/2806 07009KT P6SM OVC018
     FM271200 30008KT P6SM SCT015 SCT100
     FM271800 36007KT P6SM BKN100
     FM272100 05007KT P6SM VCSH BKN060
     FM280100 08007KT P6SM -SHSN BKN020 OVC040=



000
FTUS45 KBYZ 262339
TAFBIL
TAF
KBIL 262339Z 2700/2724 12010KT P6SM SCT030
     FM270400 VRB05KT P6SM SKC
     FM271200 22009KT P6SM SKC
     FM271800 21008KT P6SM SCT080=



000
FTUS45 KBYZ 262339
TAFLVM
TAF
KLVM 262339Z 2700/2724 08014KT P6SM FEW080
     FM270300 14006KT P6SM SKC
     FM271200 26010KT P6SM SCT150
     FM271800 36007KT P6SM BKN100
     FM272100 05007KT P6SM VCSH BKN060=



000
FTUS45 KBYZ 262339
TAFSHR
TAF
KSHR 262339Z 2700/2724 18005KT P6SM OVC025
     FM270400 VRB03KT P6SM SKC
     FM272100 VRB04KT P6SM SCT100=



000
FTUS45 KBYZ 262339
TAFLVM
TAF
KLVM 262339Z 2700/2724 08014KT P6SM FEW080
     FM270300 14006KT P6SM SKC
     FM271200 26010KT P6SM SCT150
     FM271800 36007KT P6SM BKN100
     FM272100 05007KT P6SM VCSH BKN060=



000
FTUS45 KBYZ 262339
TAFSHR
TAF
KSHR 262339Z 2700/2724 18005KT P6SM OVC025
     FM270400 VRB03KT P6SM SKC
     FM272100 VRB04KT P6SM SCT100=



000
FTUS45 KBYZ 262339
TAFMLS
TAF
KMLS 262339Z 2700/2724 17005KT P6SM FEW060
     FM270200 14006KT P6SM SKC
     FM271800 18007KT P6SM SCT100=



000
FTUS45 KBYZ 262339
TAFMLS
TAF
KMLS 262339Z 2700/2724 17005KT P6SM FEW060
     FM270200 14006KT P6SM SKC
     FM271800 18007KT P6SM SCT100=



000
FTUS45 KBYZ 262339
TAFBIL
TAF
KBIL 262339Z 2700/2724 12010KT P6SM SCT030
     FM270400 VRB05KT P6SM SKC
     FM271200 22009KT P6SM SKC
     FM271800 21008KT P6SM SCT080=



000
FTUS45 KBYZ 262223 AAA
TAFLVM
TAF AMD
KLVM 262223Z 2622/2718 08014KT P6SM BKN040
     FM270100 10011KT P6SM FEW035
     FM270900 32007KT P6SM BKN200=



000
FTUS45 KBYZ 262223 AAA
TAFLVM
TAF AMD
KLVM 262223Z 2622/2718 08014KT P6SM BKN040
     FM270100 10011KT P6SM FEW035
     FM270900 32007KT P6SM BKN200=



000
FTUS45 KBYZ 262222 AAB
TAFSHR
TAF AMD
KSHR 262222Z 2622/2718 VRB04KT P6SM BKN025
      TEMPO 2622/2624 SCT025
     FM270000 VRB04KT P6SM FEW025 BKN035
     FM270200 VRB03KT P6SM SKC=



000
FTUS45 KBYZ 262222 AAB
TAFSHR
TAF AMD
KSHR 262222Z 2622/2718 VRB04KT P6SM BKN025
      TEMPO 2622/2624 SCT025
     FM270000 VRB04KT P6SM FEW025 BKN035
     FM270200 VRB03KT P6SM SKC=



000
FTUS45 KBYZ 262042 AAA
TAFSHR
TAF AMD
KSHR 262042Z 2621/2718 VRB04KT P6SM BKN025
     FM262200 VRB04KT P6SM FEW025 BKN035
     FM270000 VRB03KT P6SM SKC=



000
FTUS45 KBYZ 262042 AAA
TAFSHR
TAF AMD
KSHR 262042Z 2621/2718 VRB04KT P6SM BKN025
     FM262200 VRB04KT P6SM FEW025 BKN035
     FM270000 VRB03KT P6SM SKC=



000
FTUS45 KBYZ 262040 AAA
TAFBIL
TAF AMD
KBIL 262040Z 2621/2718 07009KT P6SM BKN024
      TEMPO 2621/2622 SCT024
     FM262200 08009KT P6SM SCT025
     FM270600 VRB05KT P6SM SKC
     FM271300 22009KT P6SM SCT200=



000
FTUS45 KBYZ 261739
TAFMLS
TAF
KMLS 261739Z 2618/2718 VRB05KT P6SM SKC
     FM270200 14008KT P6SM SKC=



000
FTUS45 KBYZ 261739
TAFSHR
TAF
KSHR 261739Z 2618/2718 VRB05KT P6SM VCSH BKN015 OVC035
     FM262000 VRB05KT P6SM FEW015 BKN035
     FM270000 VRB03KT P6SM SKC=



000
FTUS45 KBYZ 261739
TAFLVM
TAF
KLVM 261739Z 2618/2718 09015KT P6SM BKN015
     FM262000 09013KT P6SM BKN025
     FM270100 10011KT P6SM FEW035
     FM270900 32007KT P6SM BKN200=



000
FTUS45 KBYZ 261739
TAFBIL
TAF
KBIL 261739Z 2618/2718 07008KT P6SM BKN022
      TEMPO 2618/2619 SCT022
     FM261900 08009KT P6SM SCT025
     FM270600 VRB05KT P6SM SKC
     FM271300 22009KT P6SM SCT200=



000
FTUS45 KBYZ 261739
TAFMLS
TAF
KMLS 261739Z 2618/2718 VRB05KT P6SM SKC
     FM270200 14008KT P6SM SKC=



000
FTUS45 KBYZ 261739
TAFSHR
TAF
KSHR 261739Z 2618/2718 VRB05KT P6SM VCSH BKN015 OVC035
     FM262000 VRB05KT P6SM FEW015 BKN035
     FM270000 VRB03KT P6SM SKC=



000
FTUS45 KBYZ 261739
TAFBIL
TAF
KBIL 261739Z 2618/2718 07008KT P6SM BKN022
      TEMPO 2618/2619 SCT022
     FM261900 08009KT P6SM SCT025
     FM270600 VRB05KT P6SM SKC
     FM271300 22009KT P6SM SCT200=



000
FTUS45 KBYZ 261739
TAFLVM
TAF
KLVM 261739Z 2618/2718 09015KT P6SM BKN015
     FM262000 09013KT P6SM BKN025
     FM270100 10011KT P6SM FEW035
     FM270900 32007KT P6SM BKN200=



000
FTUS45 KBYZ 261739
TAFBIL
TAF
KBIL 261739Z 2618/2718 07008KT P6SM BKN022
      TEMPO 2618/2619 SCT022
     FM261900 08009KT P6SM SCT025
     FM270600 VRB05KT P6SM SKC
     FM271300 22009KT P6SM SCT200=



000
FTUS45 KBYZ 261739
TAFLVM
TAF
KLVM 261739Z 2618/2718 09015KT P6SM BKN015
     FM262000 09013KT P6SM BKN025
     FM270100 10011KT P6SM FEW035
     FM270900 32007KT P6SM BKN200=



000
FTUS45 KBYZ 261739
TAFSHR
TAF
KSHR 261739Z 2618/2718 VRB05KT P6SM VCSH BKN015 OVC035
     FM262000 VRB05KT P6SM FEW015 BKN035
     FM270000 VRB03KT P6SM SKC=



000
FTUS45 KBYZ 261739
TAFSHR
TAF
KSHR 261739Z 2618/2718 VRB05KT P6SM VCSH BKN015 OVC035
     FM262000 VRB05KT P6SM FEW015 BKN035
     FM270000 VRB03KT P6SM SKC=



000
FTUS45 KBYZ 261739
TAFMLS
TAF
KMLS 261739Z 2618/2718 VRB05KT P6SM SKC
     FM270200 14008KT P6SM SKC=



000
FTUS45 KBYZ 261739
TAFLVM
TAF
KLVM 261739Z 2618/2718 09015KT P6SM BKN015
     FM262000 09013KT P6SM BKN025
     FM270100 10011KT P6SM FEW035
     FM270900 32007KT P6SM BKN200=



000
FTUS45 KBYZ 261739
TAFBIL
TAF
KBIL 261739Z 2618/2718 07008KT P6SM BKN022
      TEMPO 2618/2619 SCT022
     FM261900 08009KT P6SM SCT025
     FM270600 VRB05KT P6SM SKC
     FM271300 22009KT P6SM SCT200=



000
FTUS45 KBYZ 261125
TAFBIL
TAF
KBIL 261125Z 2612/2712 07008KT 6SM -SHSN FEW015 OVC030
     FM261900 08009KT P6SM SCT030=



000
FTUS45 KBYZ 261125
TAFLVM
TAF
KLVM 261125Z 2612/2712 09009KT 6SM -SHSN BKN030
     FM262000 09011KT P6SM BKN040=



000
FTUS45 KBYZ 261125
TAFMLS
TAF
KMLS 261125Z 2612/2712 VRB05KT P6SM SKC
     FM270000 14008KT P6SM SKC=



000
FTUS45 KBYZ 261125
TAFSHR
TAF
KSHR 261125Z 2612/2712 VRB05KT 6SM -SHSN BKN020
     FM262000 VRB05KT P6SM VCSH SCT020 BKN035
     FM270000 VRB03KT P6SM SKC=



000
FTUS45 KBYZ 261125
TAFSHR
TAF
KSHR 261125Z 2612/2712 VRB05KT 6SM -SHSN BKN020
     FM262000 VRB05KT P6SM VCSH SCT020 BKN035
     FM270000 VRB03KT P6SM SKC=



000
FTUS45 KBYZ 261125
TAFBIL
TAF
KBIL 261125Z 2612/2712 07008KT 6SM -SHSN FEW015 OVC030
     FM261900 08009KT P6SM SCT030=



000
FTUS45 KBYZ 261125
TAFLVM
TAF
KLVM 261125Z 2612/2712 09009KT 6SM -SHSN BKN030
     FM262000 09011KT P6SM BKN040=



000
FTUS45 KBYZ 260526
TAFBIL
TAF
KBIL 260526Z 2606/2706 07008KT 6SM -SHSN FEW015 OVC025
     FM261900 08009KT P6SM SCT030=



000
FTUS45 KBYZ 260526
TAFMLS
TAF
KMLS 260526Z 2606/2706 35007KT P6SM FEW035
     FM261200 VRB05KT P6SM SKC
     FM270000 14008KT P6SM SKC=



000
FTUS45 KBYZ 260526
TAFBIL
TAF
KBIL 260526Z 2606/2706 07008KT 6SM -SHSN FEW015 OVC025
     FM261900 08009KT P6SM SCT030=



000
FTUS45 KBYZ 260526
TAFLVM
TAF
KLVM 260526Z 2606/2706 09011KT 3SM -SHSN OVC025
     FM261200 09009KT 6SM -SHSN BKN015
     FM262000 09015KT P6SM BKN025=



000
FTUS45 KBYZ 260526
TAFSHR
TAF
KSHR 260526Z 2606/2706 32009KT 4SM -SHSN FEW015 BKN025
     FM261200 VRB05KT 6SM -SHSN BKN020
     FM262000 VRB05KT P6SM VCSH SCT020 BKN035
     FM270000 VRB03KT P6SM SKC=



000
FTUS45 KBYZ 260526
TAFLVM
TAF
KLVM 260526Z 2606/2706 09011KT 3SM -SHSN OVC025
     FM261200 09009KT 6SM -SHSN BKN015
     FM262000 09015KT P6SM BKN025=



000
FTUS45 KBYZ 260526
TAFSHR
TAF
KSHR 260526Z 2606/2706 32009KT 4SM -SHSN FEW015 BKN025
     FM261200 VRB05KT 6SM -SHSN BKN020
     FM262000 VRB05KT P6SM VCSH SCT020 BKN035
     FM270000 VRB03KT P6SM SKC=



000
FTUS45 KBYZ 260526
TAFMLS
TAF
KMLS 260526Z 2606/2706 35007KT P6SM FEW035
     FM261200 VRB05KT P6SM SKC
     FM270000 14008KT P6SM SKC=



000
FTUS45 KBYZ 260425 AAC
TAFLVM
TAF AMD
KLVM 260425Z 2604/2624 09011KT 3SM -SHSN OVC025
     FM261200 09009KT 6SM -SHSN BKN015
     FM262000 09011KT P6SM BKN025=



000
FTUS45 KBYZ 260425 AAC
TAFLVM
TAF AMD
KLVM 260425Z 2604/2624 09011KT 3SM -SHSN OVC025
     FM261200 09009KT 6SM -SHSN BKN015
     FM262000 09011KT P6SM BKN025=



000
FTUS45 KBYZ 260425 AAC
TAFLVM
TAF AMD
KLVM 260425Z 2604/2624 09011KT 3SM -SHSN OVC025
     FM261200 09009KT 6SM -SHSN BKN015
     FM262000 09011KT P6SM BKN025=



000
FTUS45 KBYZ 260222 AAA
TAFSHR
TAF AMD
KSHR 260222Z 2602/2624 34015KT 6SM -SHSN FEW015 SCT025 OVC050
      TEMPO 2602/2605 2SM -SHSN BKN025
     FM260500 33009KT 4SM -SHSN OVC015
     FM261200 VRB04KT 6SM -SHSN BKN015
     FM262000 VRB05KT P6SM VCSH SCT015 BKN025=



000
FTUS45 KBYZ 260222 AAA
TAFSHR
TAF AMD
KSHR 260222Z 2602/2624 34015KT 6SM -SHSN FEW015 SCT025 OVC050
      TEMPO 2602/2605 2SM -SHSN BKN025
     FM260500 33009KT 4SM -SHSN OVC015
     FM261200 VRB04KT 6SM -SHSN BKN015
     FM262000 VRB05KT P6SM VCSH SCT015 BKN025=



000
FTUS45 KBYZ 260113 AAB
TAFLVM
TAF AMD
KLVM 260113Z 2601/2624 09013KT P6SM -SHSN FEW020 OVC035
      TEMPO 2601/2603 2SM -SHSN BKN020
     FM260300 09014KT 3SM -SHSN OVC015
     FM262000 09011KT P6SM BKN025=



000
FTUS45 KBYZ 260113 AAB
TAFLVM
TAF AMD
KLVM 260113Z 2601/2624 09013KT P6SM -SHSN FEW020 OVC035
      TEMPO 2601/2603 2SM -SHSN BKN020
     FM260300 09014KT 3SM -SHSN OVC015
     FM262000 09011KT P6SM BKN025=



000
FTUS45 KBYZ 260113 AAB
TAFLVM
TAF AMD
KLVM 260113Z 2601/2624 09013KT P6SM -SHSN FEW020 OVC035
      TEMPO 2601/2603 2SM -SHSN BKN020
     FM260300 09014KT 3SM -SHSN OVC015
     FM262000 09011KT P6SM BKN025=



000
FTUS45 KBYZ 260113 AAB
TAFLVM
TAF AMD
KLVM 260113Z 2601/2624 09013KT P6SM -SHSN FEW020 OVC035
      TEMPO 2601/2603 2SM -SHSN BKN020
     FM260300 09014KT 3SM -SHSN OVC015
     FM262000 09011KT P6SM BKN025=



000
FTUS45 KBYZ 260047 AAA
TAFLVM
TAF AMD
KLVM 260047Z 2601/2624 09013KT P6SM -SHSN FEW020 OVC045
     FM260200 09015KT 5SM -SHSN SCT015 OVC025
     FM260300 09014KT 3SM -SHSN OVC015
     FM262000 09011KT P6SM BKN025=



000
FTUS45 KBYZ 260047 AAA
TAFLVM
TAF AMD
KLVM 260047Z 2601/2624 09013KT P6SM -SHSN FEW020 OVC045
     FM260200 09015KT 5SM -SHSN SCT015 OVC025
     FM260300 09014KT 3SM -SHSN OVC015
     FM262000 09011KT P6SM BKN025=



000
FTUS45 KBYZ 260047 AAA
TAFLVM
TAF AMD
KLVM 260047Z 2601/2624 09013KT P6SM -SHSN FEW020 OVC045
     FM260200 09015KT 5SM -SHSN SCT015 OVC025
     FM260300 09014KT 3SM -SHSN OVC015
     FM262000 09011KT P6SM BKN025=



000
FTUS45 KBYZ 260047 AAA
TAFLVM
TAF AMD
KLVM 260047Z 2601/2624 09013KT P6SM -SHSN FEW020 OVC045
     FM260200 09015KT 5SM -SHSN SCT015 OVC025
     FM260300 09014KT 3SM -SHSN OVC015
     FM262000 09011KT P6SM BKN025=



000
FTUS45 KBYZ 252340
TAFMLS
TAF
KMLS 252340Z 2600/2624 36011KT P6SM FEW025 BKN035
     FM260800 06007KT P6SM SKC=



000
FTUS45 KBYZ 252340
TAFMLS
TAF
KMLS 252340Z 2600/2624 36011KT P6SM FEW025 BKN035
     FM260800 06007KT P6SM SKC=



000
FTUS45 KBYZ 252340
TAFLVM
TAF
KLVM 252340Z 2600/2624 35011KT P6SM -SHSN FEW020 OVC060
     FM260200 08010KT 5SM -SHSN SCT015 OVC025
     FM260300 09014KT 3SM -SHSN OVC015
     FM262000 09011KT P6SM BKN025=



000
FTUS45 KBYZ 252340
TAFSHR
TAF
KSHR 252340Z 2600/2624 33019KT 1 1/2SM -SHSN BKN017 OVC025
      TEMPO 2600/2603 4SM -SHSN SCT017 BKN025
     FM260300 32011KT 4SM -SHSN OVC015
     FM261200 VRB04KT 6SM -SHSN BKN015
     FM262000 VRB05KT P6SM VCSH SCT015 BKN025=



000
FTUS45 KBYZ 252340
TAFBIL
TAF
KBIL 252340Z 2600/2624 06009KT 6SM -SHSN SCT015 OVC025
     FM261900 07008KT P6SM SCT030=



000
FTUS45 KBYZ 252340
TAFLVM
TAF
KLVM 252340Z 2600/2624 35011KT P6SM -SHSN FEW020 OVC060
     FM260200 08010KT 5SM -SHSN SCT015 OVC025
     FM260300 09014KT 3SM -SHSN OVC015
     FM262000 09011KT P6SM BKN025=



000
FTUS45 KBYZ 252340
TAFSHR
TAF
KSHR 252340Z 2600/2624 33019KT 1 1/2SM -SHSN BKN017 OVC025
      TEMPO 2600/2603 4SM -SHSN SCT017 BKN025
     FM260300 32011KT 4SM -SHSN OVC015
     FM261200 VRB04KT 6SM -SHSN BKN015
     FM262000 VRB05KT P6SM VCSH SCT015 BKN025=



000
FTUS45 KBYZ 252340
TAFBIL
TAF
KBIL 252340Z 2600/2624 06009KT 6SM -SHSN SCT015 OVC025
     FM261900 07008KT P6SM SCT030=



000
FTUS45 KBYZ 252340
TAFLVM
TAF
KLVM 252340Z 2600/2624 35011KT P6SM -SHSN FEW020 OVC060
     FM260200 08010KT 5SM -SHSN SCT015 OVC025
     FM260300 09014KT 3SM -SHSN OVC015
     FM262000 09011KT P6SM BKN025=



000
FTUS45 KBYZ 252340
TAFLVM
TAF
KLVM 252340Z 2600/2624 35011KT P6SM -SHSN FEW020 OVC060
     FM260200 08010KT 5SM -SHSN SCT015 OVC025
     FM260300 09014KT 3SM -SHSN OVC015
     FM262000 09011KT P6SM BKN025=



000
FTUS45 KBYZ 252340
TAFSHR
TAF
KSHR 252340Z 2600/2624 33019KT 1 1/2SM -SHSN BKN017 OVC025
      TEMPO 2600/2603 4SM -SHSN SCT017 BKN025
     FM260300 32011KT 4SM -SHSN OVC015
     FM261200 VRB04KT 6SM -SHSN BKN015
     FM262000 VRB05KT P6SM VCSH SCT015 BKN025=



000
FTUS45 KBYZ 252340
TAFSHR
TAF
KSHR 252340Z 2600/2624 33019KT 1 1/2SM -SHSN BKN017 OVC025
      TEMPO 2600/2603 4SM -SHSN SCT017 BKN025
     FM260300 32011KT 4SM -SHSN OVC015
     FM261200 VRB04KT 6SM -SHSN BKN015
     FM262000 VRB05KT P6SM VCSH SCT015 BKN025=



000
FTUS45 KBYZ 252340
TAFBIL
TAF
KBIL 252340Z 2600/2624 06009KT 6SM -SHSN SCT015 OVC025
     FM261900 07008KT P6SM SCT030=



000
FTUS45 KBYZ 252340
TAFMLS
TAF
KMLS 252340Z 2600/2624 36011KT P6SM FEW025 BKN035
     FM260800 06007KT P6SM SKC=



000
FTUS45 KBYZ 252340
TAFBIL
TAF
KBIL 252340Z 2600/2624 06009KT 6SM -SHSN SCT015 OVC025
     FM261900 07008KT P6SM SCT030=



000
FTUS45 KBYZ 252312 AAC
TAFSHR
TAF AMD
KSHR 252312Z 2523/2618 32017KT 4SM -SHSN SCT012 OVC025
      TEMPO 2523/2601 1 1/2SM -SHSN BKN012
     FM260200 31010KT 5SM -SHSN FEW015 BKN025
     FM261200 VRB04KT 6SM -SHSN FEW010 BKN020=



000
FTUS45 KBYZ 252312 AAC
TAFSHR
TAF AMD
KSHR 252312Z 2523/2618 32017KT 4SM -SHSN SCT012 OVC025
      TEMPO 2523/2601 1 1/2SM -SHSN BKN012
     FM260200 31010KT 5SM -SHSN FEW015 BKN025
     FM261200 VRB04KT 6SM -SHSN FEW010 BKN020=



000
FTUS45 KBYZ 252312 AAC
TAFSHR
TAF AMD
KSHR 252312Z 2523/2618 32017KT 4SM -SHSN SCT012 OVC025
      TEMPO 2523/2601 1 1/2SM -SHSN BKN012
     FM260200 31010KT 5SM -SHSN FEW015 BKN025
     FM261200 VRB04KT 6SM -SHSN FEW010 BKN020=



000
FTUS45 KBYZ 252312 AAC
TAFSHR
TAF AMD
KSHR 252312Z 2523/2618 32017KT 4SM -SHSN SCT012 OVC025
      TEMPO 2523/2601 1 1/2SM -SHSN BKN012
     FM260200 31010KT 5SM -SHSN FEW015 BKN025
     FM261200 VRB04KT 6SM -SHSN FEW010 BKN020=



000
FTUS45 KBYZ 252015 AAB
TAFSHR
TAF AMD
KSHR 252015Z 2520/2618 32026G40KT 4SM -SHSN SCT012 OVC025
      TEMPO 2520/2521 2SM -SHSN BLSN FEW005 BKN012
     FM252100 32019G29KT 4SM -SHSN SCT015 OVC025
     FM260200 31010KT 5SM -SHSN FEW015 BKN025
     FM261200 VRB04KT 6SM -SHSN FEW010 BKN020=



000
FTUS45 KBYZ 252015 AAB
TAFSHR
TAF AMD
KSHR 252015Z 2520/2618 32026G40KT 4SM -SHSN SCT012 OVC025
      TEMPO 2520/2521 2SM -SHSN BLSN FEW005 BKN012
     FM252100 32019G29KT 4SM -SHSN SCT015 OVC025
     FM260200 31010KT 5SM -SHSN FEW015 BKN025
     FM261200 VRB04KT 6SM -SHSN FEW010 BKN020=



000
FTUS45 KBYZ 252015 AAB
TAFSHR
TAF AMD
KSHR 252015Z 2520/2618 32026G40KT 4SM -SHSN SCT012 OVC025
      TEMPO 2520/2521 2SM -SHSN BLSN FEW005 BKN012
     FM252100 32019G29KT 4SM -SHSN SCT015 OVC025
     FM260200 31010KT 5SM -SHSN FEW015 BKN025
     FM261200 VRB04KT 6SM -SHSN FEW010 BKN020=



000
FTUS45 KBYZ 252015 AAB
TAFSHR
TAF AMD
KSHR 252015Z 2520/2618 32026G40KT 4SM -SHSN SCT012 OVC025
      TEMPO 2520/2521 2SM -SHSN BLSN FEW005 BKN012
     FM252100 32019G29KT 4SM -SHSN SCT015 OVC025
     FM260200 31010KT 5SM -SHSN FEW015 BKN025
     FM261200 VRB04KT 6SM -SHSN FEW010 BKN020=



000
FTUS45 KBYZ 252004 AAA
TAFBIL
TAF AMD
KBIL 252004Z 2520/2618 03015G22KT P6SM -SHSN FEW025 OVC035
     FM252100 04014KT 6SM -SHSN SCT020 OVC035
      TEMPO 2521/2524 3SM -SHSN BKN020
     FM260200 05007KT 6SM -SHSN SCT012 OVC025=



000
FTUS45 KBYZ 251933 AAA
TAFSHR
TAF AMD
KSHR 251933Z 2520/2618 32030G45KT 1/4SM SHSN BLSN VV005
      TEMPO 2520/2521 32025G35KT 2SM -SHSN BLSN SCT005 BKN012
     FM252100 32019G28KT 3SM -SHSN SCT015 OVC025
     FM260200 31010KT 5SM -SHSN FEW015 BKN025
     FM261200 VRB04KT 6SM -SHSN FEW010 BKN020=



000
FTUS45 KBYZ 251933 AAA
TAFSHR
TAF AMD
KSHR 251933Z 2520/2618 32030G45KT 1/4SM SHSN BLSN VV005
      TEMPO 2520/2521 32025G35KT 2SM -SHSN BLSN SCT005 BKN012
     FM252100 32019G28KT 3SM -SHSN SCT015 OVC025
     FM260200 31010KT 5SM -SHSN FEW015 BKN025
     FM261200 VRB04KT 6SM -SHSN FEW010 BKN020=



000
FTUS45 KBYZ 251902 AAA
TAFMLS
TAF AMD
KMLS 251902Z 2519/2618 01015G22KT 1SM -SHSN OVC012
      TEMPO 2519/2520 5SM -SHSN
     FM252000 01013G19KT 6SM -SHSN BKN013
     FM252200 36013KT P6SM VCSH SCT015 BKN025
     FM260200 01010KT P6SM BKN035
     FM261000 01008KT P6SM SKC=



000
FTUS45 KBYZ 251902 AAA
TAFMLS
TAF AMD
KMLS 251902Z 2519/2618 01015G22KT 1SM -SHSN OVC012
      TEMPO 2519/2520 5SM -SHSN
     FM252000 01013G19KT 6SM -SHSN BKN013
     FM252200 36013KT P6SM VCSH SCT015 BKN025
     FM260200 01010KT P6SM BKN035
     FM261000 01008KT P6SM SKC=



000
FTUS45 KBYZ 251740
TAFSHR
TAF
KSHR 251740Z 2518/2618 31014G21KT 5SM -SHSN SCT012 OVC035
      TEMPO 2519/2521 32028G40KT 3/4SM -SHSN BLSN BKN012
     FM252100 32019G28KT 3SM -SHSN SCT015 OVC025
     FM260200 31010KT 5SM -SHSN FEW015 BKN025
     FM261200 VRB04KT 6SM -SHSN FEW010 BKN020=



000
FTUS45 KBYZ 251740
TAFBIL
TAF
KBIL 251740Z 2518/2618 35025G35KT P6SM VCSH FEW025 BKN060
     FM251900 01013G21KT P6SM VCSH SCT025 BKN050
     FM252000 02010KT 6SM -SHSN SCT020 OVC035
      TEMPO 2520/2523 3SM -SHSN BKN020
     FM260200 05007KT 6SM -SHSN SCT012 OVC025=



000
FTUS45 KBYZ 251740
TAFLVM
TAF
KLVM 251740Z 2518/2618 32011KT 6SM -SHSN SCT015 OVC035
     FM260200 09009KT 3SM -SHSN SCT010 OVC020=



000
FTUS45 KBYZ 251740
TAFSHR
TAF
KSHR 251740Z 2518/2618 31014G21KT 5SM -SHSN SCT012 OVC035
      TEMPO 2519/2521 32028G40KT 3/4SM -SHSN BLSN BKN012
     FM252100 32019G28KT 3SM -SHSN SCT015 OVC025
     FM260200 31010KT 5SM -SHSN FEW015 BKN025
     FM261200 VRB04KT 6SM -SHSN FEW010 BKN020=



000
FTUS45 KBYZ 251740
TAFMLS
TAF
KMLS 251740Z 2518/2618 02013G19KT 3/4SM -SHSN OVC013
      TEMPO 2518/2519 5SM -SHSN
     FM251900 01013G19KT 6SM -SHSN BKN013
     FM252100 36013KT P6SM VCSH SCT015 BKN025
     FM260200 01010KT P6SM BKN035
     FM261000 01008KT P6SM SKC=



000
FTUS45 KBYZ 251740
TAFBIL
TAF
KBIL 251740Z 2518/2618 35025G35KT P6SM VCSH FEW025 BKN060
     FM251900 01013G21KT P6SM VCSH SCT025 BKN050
     FM252000 02010KT 6SM -SHSN SCT020 OVC035
      TEMPO 2520/2523 3SM -SHSN BKN020
     FM260200 05007KT 6SM -SHSN SCT012 OVC025=



000
FTUS45 KBYZ 251740
TAFLVM
TAF
KLVM 251740Z 2518/2618 32011KT 6SM -SHSN SCT015 OVC035
     FM260200 09009KT 3SM -SHSN SCT010 OVC020=



000
FTUS45 KBYZ 251740
TAFBIL
TAF
KBIL 251740Z 2518/2618 35025G35KT P6SM VCSH FEW025 BKN060
     FM251900 01013G21KT P6SM VCSH SCT025 BKN050
     FM252000 02010KT 6SM -SHSN SCT020 OVC035
      TEMPO 2520/2523 3SM -SHSN BKN020
     FM260200 05007KT 6SM -SHSN SCT012 OVC025=



000
FTUS45 KBYZ 251740
TAFMLS
TAF
KMLS 251740Z 2518/2618 02013G19KT 3/4SM -SHSN OVC013
      TEMPO 2518/2519 5SM -SHSN
     FM251900 01013G19KT 6SM -SHSN BKN013
     FM252100 36013KT P6SM VCSH SCT015 BKN025
     FM260200 01010KT P6SM BKN035
     FM261000 01008KT P6SM SKC=



000
FTUS45 KBYZ 251740
TAFLVM
TAF
KLVM 251740Z 2518/2618 32011KT 6SM -SHSN SCT015 OVC035
     FM260200 09009KT 3SM -SHSN SCT010 OVC020=



000
FTUS45 KBYZ 251740
TAFSHR
TAF
KSHR 251740Z 2518/2618 31014G21KT 5SM -SHSN SCT012 OVC035
      TEMPO 2519/2521 32028G40KT 3/4SM -SHSN BLSN BKN012
     FM252100 32019G28KT 3SM -SHSN SCT015 OVC025
     FM260200 31010KT 5SM -SHSN FEW015 BKN025
     FM261200 VRB04KT 6SM -SHSN FEW010 BKN020=



000
FTUS45 KBYZ 251740
TAFBIL
TAF
KBIL 251740Z 2518/2618 35025G35KT P6SM VCSH FEW025 BKN060
     FM251900 01013G21KT P6SM VCSH SCT025 BKN050
     FM252000 02010KT 6SM -SHSN SCT020 OVC035
      TEMPO 2520/2523 3SM -SHSN BKN020
     FM260200 05007KT 6SM -SHSN SCT012 OVC025=



000
FTUS45 KBYZ 251740
TAFSHR
TAF
KSHR 251740Z 2518/2618 31014G21KT 5SM -SHSN SCT012 OVC035
      TEMPO 2519/2521 32028G40KT 3/4SM -SHSN BLSN BKN012
     FM252100 32019G28KT 3SM -SHSN SCT015 OVC025
     FM260200 31010KT 5SM -SHSN FEW015 BKN025
     FM261200 VRB04KT 6SM -SHSN FEW010 BKN020=



000
FTUS45 KBYZ 251740
TAFMLS
TAF
KMLS 251740Z 2518/2618 02013G19KT 3/4SM -SHSN OVC013
      TEMPO 2518/2519 5SM -SHSN
     FM251900 01013G19KT 6SM -SHSN BKN013
     FM252100 36013KT P6SM VCSH SCT015 BKN025
     FM260200 01010KT P6SM BKN035
     FM261000 01008KT P6SM SKC=



000
FTUS45 KBYZ 251740
TAFLVM
TAF
KLVM 251740Z 2518/2618 32011KT 6SM -SHSN SCT015 OVC035
     FM260200 09009KT 3SM -SHSN SCT010 OVC020=



000
FTUS45 KBYZ 251658 AAB
TAFBIL
TAF AMD
KBIL 251658Z 2517/2612 01011KT 6SM -SN BR SCT012 OVC035
      TEMPO 2517/2518 34025G35KT
     FM252100 03009KT 6SM -SHSN SCT012 OVC025=



000
FTUS45 KBYZ 251658 AAB
TAFBIL
TAF AMD
KBIL 251658Z 2517/2612 01011KT 6SM -SN BR SCT012 OVC035
      TEMPO 2517/2518 34025G35KT
     FM252100 03009KT 6SM -SHSN SCT012 OVC025=



    US Dept of Commerce
    National Oceanic and Atmospheric Administration
    National Weather Service
    1325 East West Highway
    Silver Spring, MD 20910
    Page Author: NWS Internet Services Team
Disclaimer
Information Quality
Credits
Glossary
Privacy Policy
Freedom of Information Act (FOIA)
About Us
Career Opportunities